sensor_id;sensor_type;location;lat;lon;timestamp;temperature;humidity
8099;DHT22;4092;47.876;9.372;2023-05-14T00:01:20;9.00;99.90
8099;DHT22;4092;47.876;9.372;2023-05-14T00:03:49;9.00;99.90
8099;DHT22;4092;47.876;9.372;2023-05-14T00:06:16;9.00;99.90
8099;DHT22;4092;47.876;9.372;2023-05-14T00:08:43;9.00;99.90
8099;DHT22;4092;47.876;9.372;2023-05-14T00:11:11;9.10;99.90
8099;DHT22;4092;47.876;9.372;2023-05-14T00:13:38;9.10;99.90
8099;DHT22;4092;47.876;9.372;2023-05-14T00:16:05;9.10;99.90
8099;DHT22;4092;47.876;9.372;2023-05-14T00:18:33;9.20;99.90
8099;DHT22;4092;47.876;9.372;2023-05-14T00:21:01;9.10;99.90
8099;DHT22;4092;47.876;9.372;2023-05-14T00:23:28;9.20;99.90
8099;DHT22;4092;47.876;9.372;2023-05-14T00:28:23;9.20;99.90
8099;DHT22;4092;47.876;9.372;2023-05-14T00:30:51;9.30;99.90
8099;DHT22;4092;47.876;9.372;2023-05-14T00:33:18;9.30;99.90
8099;DHT22;4092;47.876;9.372;2023-05-14T00:35:45;9.30;99.90
8099;DHT22;4092;47.876;9.372;2023-05-14T00:38:14;9.30;99.90
8099;DHT22;4092;47.876;9.372;2023-05-14T00:40:44;9.40;99.90
8099;DHT22;4092;47.876;9.372;2023-05-14T00:43:15;9.40;99.90
8099;DHT22;4092;47.876;9.372;2023-05-14T00:45:43;9.40;99.90
8099;DHT22;4092;47.876;9.372;2023-05-14T00:48:10;9.40;99.90
8099;DHT22;4092;47.876;9.372;2023-05-14T00:50:37;9.40;99.90
8099;DHT22;4092;47.876;9.372;2023-05-14T00:53:04;9.40;99.90
8099;DHT22;4092;47.876;9.372;2023-05-14T00:55:37;9.40;99.90
8099;DHT22;4092;47.876;9.372;2023-05-14T00:58:06;9.40;99.90
8099;DHT22;4092;47.876;9.372;2023-05-14T01:00:35;9.40;99.90
8099;DHT22;4092;47.876;9.372;2023-05-14T01:03:02;9.40;99.90
8099;DHT22;4092;47.876;9.372;2023-05-14T01:05:43;9.40;99.90
8099;DHT22;4092;47.876;9.372;2023-05-14T01:08:20;9.50;99.90
8099;DHT22;4092;47.876;9.372;2023-05-14T01:10:59;9.50;99.90
8099;DHT22;4092;47.876;9.372;2023-05-14T01:13:37;9.40;99.90
8099;DHT22;4092;47.876;9.372;2023-05-14T01:16:08;9.50;99.90
8099;DHT22;4092;47.876;9.372;2023-05-14T01:18:39;9.40;99.90
8099;DHT22;4092;47.876;9.372;2023-05-14T01:21:23;9.40;99.90
8099;DHT22;4092;47.876;9.372;2023-05-14T01:23:52;9.40;99.90
8099;DHT22;4092;47.876;9.372;2023-05-14T01:26:20;9.40;99.90
8099;DHT22;4092;47.876;9.372;2023-05-14T01:28:48;9.40;99.90
8099;DHT22;4092;47.876;9.372;2023-05-14T01:31:17;9.40;99.90
8099;DHT22;4092;47.876;9.372;2023-05-14T01:33:50;9.40;99.90
8099;DHT22;4092;47.876;9.372;2023-05-14T01:36:18;9.40;99.90
8099;DHT22;4092;47.876;9.372;2023-05-14T01:38:48;9.40;99.90
8099;DHT22;4092;47.876;9.372;2023-05-14T01:41:17;9.40;99.90
8099;DHT22;4092;47.876;9.372;2023-05-14T01:43:46;9.50;99.90
8099;DHT22;4092;47.876;9.372;2023-05-14T01:46:17;9.50;99.90
8099;DHT22;4092;47.876;9.372;2023-05-14T01:48:44;9.50;99.90
8099;DHT22;4092;47.876;9.372;2023-05-14T01:51:12;9.50;99.90
8099;DHT22;4092;47.876;9.372;2023-05-14T01:53:39;9.50;99.90
8099;DHT22;4092;47.876;9.372;2023-05-14T01:56:08;9.50;99.90
8099;DHT22;4092;47.876;9.372;2023-05-14T01:58:35;9.50;99.90
8099;DHT22;4092;47.876;9.372;2023-05-14T02:01:02;9.50;99.90
8099;DHT22;4092;47.876;9.372;2023-05-14T02:03:29;9.50;99.90
8099;DHT22;4092;47.876;9.372;2023-05-14T02:05:58;9.50;99.90
8099;DHT22;4092;47.876;9.372;2023-05-14T02:08:25;9.60;99.90
8099;DHT22;4092;47.876;9.372;2023-05-14T02:10:52;9.60;99.90
8099;DHT22;4092;47.876;9.372;2023-05-14T02:13:21;9.60;99.90
8099;DHT22;4092;47.876;9.372;2023-05-14T02:15:49;9.60;99.90
8099;DHT22;4092;47.876;9.372;2023-05-14T02:18:16;9.50;99.90
8099;DHT22;4092;47.876;9.372;2023-05-14T02:20:43;9.50;99.90
8099;DHT22;4092;47.876;9.372;2023-05-14T02:23:10;9.60;99.90
8099;DHT22;4092;47.876;9.372;2023-05-14T02:25:38;9.60;99.90
8099;DHT22;4092;47.876;9.372;2023-05-14T02:28:05;9.60;99.90
8099;DHT22;4092;47.876;9.372;2023-05-14T02:30:33;9.60;99.90
8099;DHT22;4092;47.876;9.372;2023-05-14T02:33:00;9.70;99.90
8099;DHT22;4092;47.876;9.372;2023-05-14T02:35:29;9.60;99.90
8099;DHT22;4092;47.876;9.372;2023-05-14T02:37:56;9.60;99.90
8099;DHT22;4092;47.876;9.372;2023-05-14T02:40:24;9.60;99.90
8099;DHT22;4092;47.876;9.372;2023-05-14T02:42:51;9.70;99.90
8099;DHT22;4092;47.876;9.372;2023-05-14T02:45:18;9.70;99.90
8099;DHT22;4092;47.876;9.372;2023-05-14T02:47:47;9.70;99.90
8099;DHT22;4092;47.876;9.372;2023-05-14T02:50:15;9.70;99.90
8099;DHT22;4092;47.876;9.372;2023-05-14T02:52:42;9.70;99.90
8099;DHT22;4092;47.876;9.372;2023-05-14T02:55:09;9.70;99.90
8099;DHT22;4092;47.876;9.372;2023-05-14T02:57:37;9.60;99.90
8099;DHT22;4092;47.876;9.372;2023-05-14T03:00:06;9.70;99.90
8099;DHT22;4092;47.876;9.372;2023-05-14T03:02:33;9.60;99.90
8099;DHT22;4092;47.876;9.372;2023-05-14T03:05:03;9.60;99.90
8099;DHT22;4092;47.876;9.372;2023-05-14T03:07:30;9.60;99.90
8099;DHT22;4092;47.876;9.372;2023-05-14T03:09:57;9.70;99.90
8099;DHT22;4092;47.876;9.372;2023-05-14T03:12:25;9.70;99.90
8099;DHT22;4092;47.876;9.372;2023-05-14T03:14:52;9.70;99.90
8099;DHT22;4092;47.876;9.372;2023-05-14T03:17:19;9.70;99.90
8099;DHT22;4092;47.876;9.372;2023-05-14T03:19:46;9.70;99.90
8099;DHT22;4092;47.876;9.372;2023-05-14T03:22:15;9.70;99.90
8099;DHT22;4092;47.876;9.372;2023-05-14T03:24:45;9.70;99.90
8099;DHT22;4092;47.876;9.372;2023-05-14T03:27:12;9.60;99.90
8099;DHT22;4092;47.876;9.372;2023-05-14T03:29:39;9.70;99.90
8099;DHT22;4092;47.876;9.372;2023-05-14T03:32:06;9.70;99.90
8099;DHT22;4092;47.876;9.372;2023-05-14T03:34:33;9.70;99.90
8099;DHT22;4092;47.876;9.372;2023-05-14T03:37:02;9.70;99.90
8099;DHT22;4092;47.876;9.372;2023-05-14T03:39:30;9.70;99.90
8099;DHT22;4092;47.876;9.372;2023-05-14T03:41:57;9.70;99.90
8099;DHT22;4092;47.876;9.372;2023-05-14T03:44:26;9.70;99.90
8099;DHT22;4092;47.876;9.372;2023-05-14T03:46:53;9.70;99.90
8099;DHT22;4092;47.876;9.372;2023-05-14T03:49:21;9.70;99.90
8099;DHT22;4092;47.876;9.372;2023-05-14T03:51:48;9.70;99.90
8099;DHT22;4092;47.876;9.372;2023-05-14T03:54:15;9.70;99.90
8099;DHT22;4092;47.876;9.372;2023-05-14T03:56:43;9.70;99.90
8099;DHT22;4092;47.876;9.372;2023-05-14T03:59:10;9.70;99.90
8099;DHT22;4092;47.876;9.372;2023-05-14T04:01:37;9.80;99.90
8099;DHT22;4092;47.876;9.372;2023-05-14T04:04:04;9.80;99.90
8099;DHT22;4092;47.876;9.372;2023-05-14T04:06:32;9.80;99.90
8099;DHT22;4092;47.876;9.372;2023-05-14T04:08:59;9.90;99.90
8099;DHT22;4092;47.876;9.372;2023-05-14T04:11:26;9.90;99.90
8099;DHT22;4092;47.876;9.372;2023-05-14T04:13:54;10.10;99.90
8099;DHT22;4092;47.876;9.372;2023-05-14T04:16:21;9.90;99.90
8099;DHT22;4092;47.876;9.372;2023-05-14T04:18:48;9.90;99.90
8099;DHT22;4092;47.876;9.372;2023-05-14T04:21:16;9.80;99.90
8099;DHT22;4092;47.876;9.372;2023-05-14T04:23:43;9.70;99.90
8099;DHT22;4092;47.876;9.372;2023-05-14T04:26:10;9.60;99.90
8099;DHT22;4092;47.876;9.372;2023-05-14T04:28:37;9.60;99.90
8099;DHT22;4092;47.876;9.372;2023-05-14T04:31:05;9.60;99.90
8099;DHT22;4092;47.876;9.372;2023-05-14T04:33:33;9.60;99.90
8099;DHT22;4092;47.876;9.372;2023-05-14T04:36:00;9.60;99.90
8099;DHT22;4092;47.876;9.372;2023-05-14T04:38:27;9.60;99.90
8099;DHT22;4092;47.876;9.372;2023-05-14T04:40:53;9.60;99.90
8099;DHT22;4092;47.876;9.372;2023-05-14T04:43:21;9.60;99.90
8099;DHT22;4092;47.876;9.372;2023-05-14T04:45:48;9.50;99.90
8099;DHT22;4092;47.876;9.372;2023-05-14T04:48:17;9.50;99.90
8099;DHT22;4092;47.876;9.372;2023-05-14T04:50:44;9.50;99.90
8099;DHT22;4092;47.876;9.372;2023-05-14T04:53:11;9.50;99.90
8099;DHT22;4092;47.876;9.372;2023-05-14T04:55:38;9.60;99.90
8099;DHT22;4092;47.876;9.372;2023-05-14T04:58:05;9.60;99.90
8099;DHT22;4092;47.876;9.372;2023-05-14T05:00:33;9.60;99.90
8099;DHT22;4092;47.876;9.372;2023-05-14T05:03:00;9.60;99.90
8099;DHT22;4092;47.876;9.372;2023-05-14T05:05:29;9.50;99.90
8099;DHT22;4092;47.876;9.372;2023-05-14T05:07:56;9.50;99.90
8099;DHT22;4092;47.876;9.372;2023-05-14T05:10:23;9.50;99.90
8099;DHT22;4092;47.876;9.372;2023-05-14T05:12:50;9.50;99.90
8099;DHT22;4092;47.876;9.372;2023-05-14T05:15:17;9.50;99.90
8099;DHT22;4092;47.876;9.372;2023-05-14T05:17:45;9.50;99.90
8099;DHT22;4092;47.876;9.372;2023-05-14T05:20:12;9.50;99.90
8099;DHT22;4092;47.876;9.372;2023-05-14T05:22:41;9.60;99.90
8099;DHT22;4092;47.876;9.372;2023-05-14T05:25:08;9.60;99.90
8099;DHT22;4092;47.876;9.372;2023-05-14T05:27:37;9.50;99.90
8099;DHT22;4092;47.876;9.372;2023-05-14T05:30:07;9.50;99.90
8099;DHT22;4092;47.876;9.372;2023-05-14T05:32:34;9.60;99.90
8099;DHT22;4092;47.876;9.372;2023-05-14T05:35:01;9.60;99.90
8099;DHT22;4092;47.876;9.372;2023-05-14T05:37:29;9.60;99.90
8099;DHT22;4092;47.876;9.372;2023-05-14T05:39:57;9.60;99.90
8099;DHT22;4092;47.876;9.372;2023-05-14T05:42:26;9.60;99.90
8099;DHT22;4092;47.876;9.372;2023-05-14T05:44:54;9.70;99.90
8099;DHT22;4092;47.876;9.372;2023-05-14T05:47:21;9.70;99.90
8099;DHT22;4092;47.876;9.372;2023-05-14T05:49:48;9.70;99.90
8099;DHT22;4092;47.876;9.372;2023-05-14T05:52:16;9.60;99.90
8099;DHT22;4092;47.876;9.372;2023-05-14T05:54:42;9.60;99.90
8099;DHT22;4092;47.876;9.372;2023-05-14T05:57:11;9.60;99.90
8099;DHT22;4092;47.876;9.372;2023-05-14T05:59:38;9.60;99.90
8099;DHT22;4092;47.876;9.372;2023-05-14T06:02:07;9.60;99.90
8099;DHT22;4092;47.876;9.372;2023-05-14T06:04:34;9.70;99.90
8099;DHT22;4092;47.876;9.372;2023-05-14T06:07:03;9.70;99.90
8099;DHT22;4092;47.876;9.372;2023-05-14T06:09:30;9.70;99.90
8099;DHT22;4092;47.876;9.372;2023-05-14T06:11:57;9.70;99.90
8099;DHT22;4092;47.876;9.372;2023-05-14T06:14:26;9.70;99.90
8099;DHT22;4092;47.876;9.372;2023-05-14T06:16:53;9.70;99.90
8099;DHT22;4092;47.876;9.372;2023-05-14T06:19:21;9.60;99.90
8099;DHT22;4092;47.876;9.372;2023-05-14T06:21:50;9.70;99.90
8099;DHT22;4092;47.876;9.372;2023-05-14T06:24:17;9.70;99.90
8099;DHT22;4092;47.876;9.372;2023-05-14T06:26:45;9.70;99.90
8099;DHT22;4092;47.876;9.372;2023-05-14T06:29:13;9.70;99.90
8099;DHT22;4092;47.876;9.372;2023-05-14T06:31:41;9.70;99.90
8099;DHT22;4092;47.876;9.372;2023-05-14T06:34:10;9.80;99.90
8099;DHT22;4092;47.876;9.372;2023-05-14T06:36:38;9.70;99.90
8099;DHT22;4092;47.876;9.372;2023-05-14T06:39:05;9.80;99.90
8099;DHT22;4092;47.876;9.372;2023-05-14T06:41:32;9.70;99.90
8099;DHT22;4092;47.876;9.372;2023-05-14T06:43:59;9.70;99.90
8099;DHT22;4092;47.876;9.372;2023-05-14T06:46:26;9.70;99.90
8099;DHT22;4092;47.876;9.372;2023-05-14T06:48:57;9.70;99.90
8099;DHT22;4092;47.876;9.372;2023-05-14T06:51:24;9.70;99.90
8099;DHT22;4092;47.876;9.372;2023-05-14T06:53:51;9.70;99.90
8099;DHT22;4092;47.876;9.372;2023-05-14T06:56:20;9.70;99.90
8099;DHT22;4092;47.876;9.372;2023-05-14T06:58:47;9.70;99.90
8099;DHT22;4092;47.876;9.372;2023-05-14T07:01:15;9.80;99.90
8099;DHT22;4092;47.876;9.372;2023-05-14T07:03:42;9.80;99.90
8099;DHT22;4092;47.876;9.372;2023-05-14T07:06:11;9.80;99.90
8099;DHT22;4092;47.876;9.372;2023-05-14T07:08:38;9.90;99.90
8099;DHT22;4092;47.876;9.372;2023-05-14T07:11:07;9.90;99.90
8099;DHT22;4092;47.876;9.372;2023-05-14T07:13:34;9.90;99.90
8099;DHT22;4092;47.876;9.372;2023-05-14T07:16:02;9.90;99.90
8099;DHT22;4092;47.876;9.372;2023-05-14T07:18:29;10.00;99.90
8099;DHT22;4092;47.876;9.372;2023-05-14T07:20:56;10.00;99.90
8099;DHT22;4092;47.876;9.372;2023-05-14T07:23:24;10.00;99.90
8099;DHT22;4092;47.876;9.372;2023-05-14T07:25:53;10.00;99.90
8099;DHT22;4092;47.876;9.372;2023-05-14T07:28:19;10.00;99.90
8099;DHT22;4092;47.876;9.372;2023-05-14T07:30:47;10.00;99.90
8099;DHT22;4092;47.876;9.372;2023-05-14T07:33:14;10.00;99.90
8099;DHT22;4092;47.876;9.372;2023-05-14T07:35:42;10.10;99.90
8099;DHT22;4092;47.876;9.372;2023-05-14T07:38:08;10.20;99.90
8099;DHT22;4092;47.876;9.372;2023-05-14T07:40:39;10.30;99.90
8099;DHT22;4092;47.876;9.372;2023-05-14T07:43:06;10.40;99.90
8099;DHT22;4092;47.876;9.372;2023-05-14T07:45:35;10.40;99.90
8099;DHT22;4092;47.876;9.372;2023-05-14T07:48:03;10.50;99.90
8099;DHT22;4092;47.876;9.372;2023-05-14T07:50:30;10.50;99.90
8099;DHT22;4092;47.876;9.372;2023-05-14T07:52:57;10.60;99.90
8099;DHT22;4092;47.876;9.372;2023-05-14T07:55:25;10.70;99.90
8099;DHT22;4092;47.876;9.372;2023-05-14T07:57:53;10.80;99.90
8099;DHT22;4092;47.876;9.372;2023-05-14T08:00:20;10.90;99.90
8099;DHT22;4092;47.876;9.372;2023-05-14T08:02:49;11.00;99.90
8099;DHT22;4092;47.876;9.372;2023-05-14T08:05:16;10.90;99.90
8099;DHT22;4092;47.876;9.372;2023-05-14T08:07:43;10.90;99.90
8099;DHT22;4092;47.876;9.372;2023-05-14T08:10:11;10.80;99.90
8099;DHT22;4092;47.876;9.372;2023-05-14T08:12:41;10.80;99.90
8099;DHT22;4092;47.876;9.372;2023-05-14T08:15:12;10.80;99.90
8099;DHT22;4092;47.876;9.372;2023-05-14T08:17:39;10.80;99.90
8099;DHT22;4092;47.876;9.372;2023-05-14T08:20:09;10.70;99.90
8099;DHT22;4092;47.876;9.372;2023-05-14T08:22:37;10.70;99.90
8099;DHT22;4092;47.876;9.372;2023-05-14T08:25:05;10.80;99.90
8099;DHT22;4092;47.876;9.372;2023-05-14T08:27:32;10.80;99.90
8099;DHT22;4092;47.876;9.372;2023-05-14T08:29:59;10.80;99.90
8099;DHT22;4092;47.876;9.372;2023-05-14T08:32:28;10.90;99.90
8099;DHT22;4092;47.876;9.372;2023-05-14T08:34:56;10.90;99.90
8099;DHT22;4092;47.876;9.372;2023-05-14T08:37:23;10.90;99.90
8099;DHT22;4092;47.876;9.372;2023-05-14T08:39:50;10.90;99.90
8099;DHT22;4092;47.876;9.372;2023-05-14T08:42:21;11.00;99.90
8099;DHT22;4092;47.876;9.372;2023-05-14T08:44:56;11.00;99.90
8099;DHT22;4092;47.876;9.372;2023-05-14T08:47:24;11.00;99.90
8099;DHT22;4092;47.876;9.372;2023-05-14T08:49:58;11.00;99.90
8099;DHT22;4092;47.876;9.372;2023-05-14T08:52:29;11.00;99.90
8099;DHT22;4092;47.876;9.372;2023-05-14T08:54:58;11.00;99.90
8099;DHT22;4092;47.876;9.372;2023-05-14T08:57:27;10.90;99.90
8099;DHT22;4092;47.876;9.372;2023-05-14T08:59:56;10.90;99.90
8099;DHT22;4092;47.876;9.372;2023-05-14T09:02:27;10.80;99.90
8099;DHT22;4092;47.876;9.372;2023-05-14T09:04:57;10.80;99.90
8099;DHT22;4092;47.876;9.372;2023-05-14T09:07:24;10.80;99.90
8099;DHT22;4092;47.876;9.372;2023-05-14T09:09:54;10.70;99.90
8099;DHT22;4092;47.876;9.372;2023-05-14T09:12:23;10.80;99.90
8099;DHT22;4092;47.876;9.372;2023-05-14T09:14:53;11.00;99.90
8099;DHT22;4092;47.876;9.372;2023-05-14T09:17:20;11.10;99.90
8099;DHT22;4092;47.876;9.372;2023-05-14T09:19:48;11.30;99.90
8099;DHT22;4092;47.876;9.372;2023-05-14T09:22:19;11.40;99.90
8099;DHT22;4092;47.876;9.372;2023-05-14T09:25:01;11.50;99.90
8099;DHT22;4092;47.876;9.372;2023-05-14T09:27:29;11.60;99.90
8099;DHT22;4092;47.876;9.372;2023-05-14T09:30:04;11.60;99.90
8099;DHT22;4092;47.876;9.372;2023-05-14T09:32:35;11.60;99.90
8099;DHT22;4092;47.876;9.372;2023-05-14T09:35:10;11.50;99.90
8099;DHT22;4092;47.876;9.372;2023-05-14T09:37:40;11.30;99.90
8099;DHT22;4092;47.876;9.372;2023-05-14T09:43:42;11.20;99.90
8099;DHT22;4092;47.876;9.372;2023-05-14T09:46:10;11.20;99.90
8099;DHT22;4092;47.876;9.372;2023-05-14T09:48:37;11.10;99.90
8099;DHT22;4092;47.876;9.372;2023-05-14T09:51:04;11.10;99.90
8099;DHT22;4092;47.876;9.372;2023-05-14T09:53:34;11.10;99.90
8099;DHT22;4092;47.876;9.372;2023-05-14T09:56:01;11.20;99.90
8099;DHT22;4092;47.876;9.372;2023-05-14T09:58:29;11.30;99.90
8099;DHT22;4092;47.876;9.372;2023-05-14T10:01:00;11.50;99.90
8099;DHT22;4092;47.876;9.372;2023-05-14T10:03:29;11.60;99.90
8099;DHT22;4092;47.876;9.372;2023-05-14T10:05:59;11.70;99.90
8099;DHT22;4092;47.876;9.372;2023-05-14T10:08:33;11.80;99.90
8099;DHT22;4092;47.876;9.372;2023-05-14T10:11:03;11.80;99.90
8099;DHT22;4092;47.876;9.372;2023-05-14T10:13:37;11.90;99.90
8099;DHT22;4092;47.876;9.372;2023-05-14T10:16:10;11.90;99.90
8099;DHT22;4092;47.876;9.372;2023-05-14T10:18:40;11.90;99.90
8099;DHT22;4092;47.876;9.372;2023-05-14T10:21:10;11.90;99.90
8099;DHT22;4092;47.876;9.372;2023-05-14T10:23:43;11.80;99.90
8099;DHT22;4092;47.876;9.372;2023-05-14T10:26:10;11.80;99.90
8099;DHT22;4092;47.876;9.372;2023-05-14T10:28:38;11.70;99.90
8099;DHT22;4092;47.876;9.372;2023-05-14T10:31:09;11.70;99.90
8099;DHT22;4092;47.876;9.372;2023-05-14T10:33:46;11.60;99.90
8099;DHT22;4092;47.876;9.372;2023-05-14T10:36:15;11.60;99.90
8099;DHT22;4092;47.876;9.372;2023-05-14T10:38:44;11.70;99.90
8099;DHT22;4092;47.876;9.372;2023-05-14T10:41:13;11.70;99.90
8099;DHT22;4092;47.876;9.372;2023-05-14T10:43:42;11.70;99.90
8099;DHT22;4092;47.876;9.372;2023-05-14T10:46:10;11.80;99.90
8099;DHT22;4092;47.876;9.372;2023-05-14T10:48:41;11.80;99.90
8099;DHT22;4092;47.876;9.372;2023-05-14T10:51:10;11.80;99.90
8099;DHT22;4092;47.876;9.372;2023-05-14T10:53:40;11.80;99.90
8099;DHT22;4092;47.876;9.372;2023-05-14T10:56:11;11.80;99.90
8099;DHT22;4092;47.876;9.372;2023-05-14T10:58:39;11.70;99.90
8099;DHT22;4092;47.876;9.372;2023-05-14T11:01:09;11.60;99.90
8099;DHT22;4092;47.876;9.372;2023-05-14T11:03:42;11.50;99.90
8099;DHT22;4092;47.876;9.372;2023-05-14T11:06:10;11.50;99.90
8099;DHT22;4092;47.876;9.372;2023-05-14T11:08:39;11.40;99.90
8099;DHT22;4092;47.876;9.372;2023-05-14T11:11:09;11.40;99.90
8099;DHT22;4092;47.876;9.372;2023-05-14T11:13:36;11.50;99.90
8099;DHT22;4092;47.876;9.372;2023-05-14T11:16:05;11.70;99.90
8099;DHT22;4092;47.876;9.372;2023-05-14T11:18:34;11.80;99.90
8099;DHT22;4092;47.876;9.372;2023-05-14T11:21:03;11.90;99.90
8099;DHT22;4092;47.876;9.372;2023-05-14T11:23:30;11.80;99.90
8099;DHT22;4092;47.876;9.372;2023-05-14T11:25:58;11.70;99.90
8099;DHT22;4092;47.876;9.372;2023-05-14T11:28:29;11.70;99.90
8099;DHT22;4092;47.876;9.372;2023-05-14T11:30:56;11.70;99.90
8099;DHT22;4092;47.876;9.372;2023-05-14T11:33:27;11.80;99.90
8099;DHT22;4092;47.876;9.372;2023-05-14T11:35:55;12.00;99.90
8099;DHT22;4092;47.876;9.372;2023-05-14T11:38:22;12.20;99.90
8099;DHT22;4092;47.876;9.372;2023-05-14T11:40:52;12.30;99.90
8099;DHT22;4092;47.876;9.372;2023-05-14T11:43:22;12.40;99.90
8099;DHT22;4092;47.876;9.372;2023-05-14T11:45:52;12.60;99.90
8099;DHT22;4092;47.876;9.372;2023-05-14T11:48:19;12.60;99.90
8099;DHT22;4092;47.876;9.372;2023-05-14T11:50:47;12.60;99.90
8099;DHT22;4092;47.876;9.372;2023-05-14T11:53:16;12.50;99.90
8099;DHT22;4092;47.876;9.372;2023-05-14T11:55:44;12.30;99.90
8099;DHT22;4092;47.876;9.372;2023-05-14T11:58:11;12.30;99.90
8099;DHT22;4092;47.876;9.372;2023-05-14T12:00:39;12.30;99.90
8099;DHT22;4092;47.876;9.372;2023-05-14T12:03:10;12.20;99.90
8099;DHT22;4092;47.876;9.372;2023-05-14T12:05:37;12.20;99.90
8099;DHT22;4092;47.876;9.372;2023-05-14T12:08:18;12.20;99.90
8099;DHT22;4092;47.876;9.372;2023-05-14T12:10:48;12.20;99.90
8099;DHT22;4092;47.876;9.372;2023-05-14T12:13:15;12.30;99.90
8099;DHT22;4092;47.876;9.372;2023-05-14T12:15:52;12.20;99.90
8099;DHT22;4092;47.876;9.372;2023-05-14T12:18:21;12.30;99.90
8099;DHT22;4092;47.876;9.372;2023-05-14T12:20:48;12.30;99.90
8099;DHT22;4092;47.876;9.372;2023-05-14T12:23:17;12.30;99.90
8099;DHT22;4092;47.876;9.372;2023-05-14T12:25:50;12.40;99.90
8099;DHT22;4092;47.876;9.372;2023-05-14T12:28:19;12.50;99.90
8099;DHT22;4092;47.876;9.372;2023-05-14T12:30:55;12.50;99.90
8099;DHT22;4092;47.876;9.372;2023-05-14T12:33:24;12.40;99.90
8099;DHT22;4092;47.876;9.372;2023-05-14T12:36:15;12.40;99.90
8099;DHT22;4092;47.876;9.372;2023-05-14T12:38:42;12.50;99.90
8099;DHT22;4092;47.876;9.372;2023-05-14T12:41:10;12.70;99.90
8099;DHT22;4092;47.876;9.372;2023-05-14T12:43:37;12.70;99.90
8099;DHT22;4092;47.876;9.372;2023-05-14T12:46:08;12.80;99.90
8099;DHT22;4092;47.876;9.372;2023-05-14T12:48:36;12.80;99.90
8099;DHT22;4092;47.876;9.372;2023-05-14T12:51:03;12.80;99.90
8099;DHT22;4092;47.876;9.372;2023-05-14T12:53:33;12.90;99.90
8099;DHT22;4092;47.876;9.372;2023-05-14T12:56:02;12.90;99.90
8099;DHT22;4092;47.876;9.372;2023-05-14T12:58:30;13.00;99.90
8099;DHT22;4092;47.876;9.372;2023-05-14T13:00:57;13.00;99.90
8099;DHT22;4092;47.876;9.372;2023-05-14T13:03:24;13.20;99.90
8099;DHT22;4092;47.876;9.372;2023-05-14T13:05:53;13.20;99.90
8099;DHT22;4092;47.876;9.372;2023-05-14T13:08:21;13.20;99.90
8099;DHT22;4092;47.876;9.372;2023-05-14T13:10:49;13.30;99.90
8099;DHT22;4092;47.876;9.372;2023-05-14T13:13:16;13.40;99.90
8099;DHT22;4092;47.876;9.372;2023-05-14T13:15:43;13.60;99.90
8099;DHT22;4092;47.876;9.372;2023-05-14T13:18:16;13.90;99.90
8099;DHT22;4092;47.876;9.372;2023-05-14T13:20:44;14.10;99.90
8099;DHT22;4092;47.876;9.372;2023-05-14T13:23:13;14.50;99.90
8099;DHT22;4092;47.876;9.372;2023-05-14T13:25:40;14.70;99.90
8099;DHT22;4092;47.876;9.372;2023-05-14T13:28:07;14.90;99.90
8099;DHT22;4092;47.876;9.372;2023-05-14T13:30:34;15.00;99.90
8099;DHT22;4092;47.876;9.372;2023-05-14T13:33:04;15.00;99.90
8099;DHT22;4092;47.876;9.372;2023-05-14T13:35:32;15.20;99.90
8099;DHT22;4092;47.876;9.372;2023-05-14T13:37:59;15.40;99.90
8099;DHT22;4092;47.876;9.372;2023-05-14T13:40:27;15.90;99.90
8099;DHT22;4092;47.876;9.372;2023-05-14T13:42:54;16.40;99.90
8099;DHT22;4092;47.876;9.372;2023-05-14T13:45:21;16.60;99.90
8099;DHT22;4092;47.876;9.372;2023-05-14T13:47:48;16.80;99.90
8099;DHT22;4092;47.876;9.372;2023-05-14T13:50:15;17.10;99.90
8099;DHT22;4092;47.876;9.372;2023-05-14T13:52:44;17.10;99.90
8099;DHT22;4092;47.876;9.372;2023-05-14T13:55:11;17.10;99.90
8099;DHT22;4092;47.876;9.372;2023-05-14T13:57:39;16.90;99.90
8099;DHT22;4092;47.876;9.372;2023-05-14T14:00:08;16.80;99.90
8099;DHT22;4092;47.876;9.372;2023-05-14T14:02:35;16.90;99.90
8099;DHT22;4092;47.876;9.372;2023-05-14T14:05:03;17.00;99.90
8099;DHT22;4092;47.876;9.372;2023-05-14T14:07:31;16.80;99.90
8099;DHT22;4092;47.876;9.372;2023-05-14T14:09:58;16.60;99.90
8099;DHT22;4092;47.876;9.372;2023-05-14T14:12:26;16.40;99.90
8099;DHT22;4092;47.876;9.372;2023-05-14T14:14:55;16.90;99.90
8099;DHT22;4092;47.876;9.372;2023-05-14T14:17:22;17.50;99.90
8099;DHT22;4092;47.876;9.372;2023-05-14T14:19:49;17.80;99.90
8099;DHT22;4092;47.876;9.372;2023-05-14T14:22:16;17.50;99.90
8099;DHT22;4092;47.876;9.372;2023-05-14T14:24:43;17.20;99.90
8099;DHT22;4092;47.876;9.372;2023-05-14T14:27:10;17.20;99.90
8099;DHT22;4092;47.876;9.372;2023-05-14T14:29:38;17.00;99.90
8099;DHT22;4092;47.876;9.372;2023-05-14T14:32:07;17.00;99.90
8099;DHT22;4092;47.876;9.372;2023-05-14T14:34:34;17.10;99.90
8099;DHT22;4092;47.876;9.372;2023-05-14T14:37:00;17.00;99.90
8099;DHT22;4092;47.876;9.372;2023-05-14T14:39:28;16.70;99.90
8099;DHT22;4092;47.876;9.372;2023-05-14T14:41:55;16.50;99.90
8099;DHT22;4092;47.876;9.372;2023-05-14T14:44:22;16.40;99.90
8099;DHT22;4092;47.876;9.372;2023-05-14T14:46:49;16.00;99.90
8099;DHT22;4092;47.876;9.372;2023-05-14T14:49:17;16.00;99.90
8099;DHT22;4092;47.876;9.372;2023-05-14T14:51:44;15.90;99.90
8099;DHT22;4092;47.876;9.372;2023-05-14T14:54:11;16.00;99.90
8099;DHT22;4092;47.876;9.372;2023-05-14T14:56:38;16.00;99.90
8099;DHT22;4092;47.876;9.372;2023-05-14T14:59:07;16.00;99.90
8099;DHT22;4092;47.876;9.372;2023-05-14T15:01:37;15.90;99.90
8099;DHT22;4092;47.876;9.372;2023-05-14T15:04:04;15.80;99.90
8099;DHT22;4092;47.876;9.372;2023-05-14T15:06:33;15.40;99.90
8099;DHT22;4092;47.876;9.372;2023-05-14T15:09:01;15.10;99.90
8099;DHT22;4092;47.876;9.372;2023-05-14T15:11:28;14.50;99.90
8099;DHT22;4092;47.876;9.372;2023-05-14T15:13:55;14.00;99.90
8099;DHT22;4092;47.876;9.372;2023-05-14T15:16:22;13.60;99.90
8099;DHT22;4092;47.876;9.372;2023-05-14T15:18:49;13.20;99.90
8099;DHT22;4092;47.876;9.372;2023-05-14T15:21:16;12.90;99.90
8099;DHT22;4092;47.876;9.372;2023-05-14T15:23:45;12.70;99.90
8099;DHT22;4092;47.876;9.372;2023-05-14T15:26:12;12.60;99.90
8099;DHT22;4092;47.876;9.372;2023-05-14T15:28:39;12.40;99.90
8099;DHT22;4092;47.876;9.372;2023-05-14T15:31:06;12.20;99.90
8099;DHT22;4092;47.876;9.372;2023-05-14T15:33:33;12.10;99.90
8099;DHT22;4092;47.876;9.372;2023-05-14T15:36:00;12.00;99.90
8099;DHT22;4092;47.876;9.372;2023-05-14T15:38:27;12.00;99.90
8099;DHT22;4092;47.876;9.372;2023-05-14T15:40:55;11.90;99.90
8099;DHT22;4092;47.876;9.372;2023-05-14T15:43:23;11.80;99.90
8099;DHT22;4092;47.876;9.372;2023-05-14T15:45:50;11.80;99.90
8099;DHT22;4092;47.876;9.372;2023-05-14T15:48:18;11.80;99.90
8099;DHT22;4092;47.876;9.372;2023-05-14T15:50:47;11.80;99.90
8099;DHT22;4092;47.876;9.372;2023-05-14T15:53:14;12.00;99.90
8099;DHT22;4092;47.876;9.372;2023-05-14T15:55:42;12.00;99.90
8099;DHT22;4092;47.876;9.372;2023-05-14T15:58:10;11.90;99.90
8099;DHT22;4092;47.876;9.372;2023-05-14T16:00:38;11.90;99.90
8099;DHT22;4092;47.876;9.372;2023-05-14T16:03:04;11.90;99.90
8099;DHT22;4092;47.876;9.372;2023-05-14T16:05:31;11.80;99.90
8099;DHT22;4092;47.876;9.372;2023-05-14T16:07:58;11.80;99.90
8099;DHT22;4092;47.876;9.372;2023-05-14T16:10:45;11.60;99.90
8099;DHT22;4092;47.876;9.372;2023-05-14T16:13:17;11.60;99.90
8099;DHT22;4092;47.876;9.372;2023-05-14T16:15:47;11.50;99.90
8099;DHT22;4092;47.876;9.372;2023-05-14T16:18:19;11.50;99.90
8099;DHT22;4092;47.876;9.372;2023-05-14T16:20:49;11.40;99.90
8099;DHT22;4092;47.876;9.372;2023-05-14T16:23:17;11.50;99.90